sensor_id;sensor_type;location;lat;lon;timestamp;pressure;altitude;pressure_sealevel;temperature;humidity
40730;BME280;26418;50.070;8.436;2022-09-09T00:00:38;99487.31;;;16.45;81.71
40730;BME280;26418;50.070;8.436;2022-09-09T00:03:12;99474.19;;;16.35;81.80
40730;BME280;26418;50.070;8.436;2022-09-09T00:06:10;99477.72;;;16.35;82.26
40730;BME280;26418;50.070;8.436;2022-09-09T00:08:49;99493.47;;;16.42;82.44
40730;BME280;26418;50.070;8.436;2022-09-09T00:11:26;99503.06;;;16.36;82.43
40730;BME280;26418;50.070;8.436;2022-09-09T00:13:54;99474.97;;;16.19;82.59
40730;BME280;26418;50.070;8.436;2022-09-09T00:16:25;99489.56;;;16.27;82.74
40730;BME280;26418;50.070;8.436;2022-09-09T00:19:00;99489.38;;;16.20;82.90
40730;BME280;26418;50.070;8.436;2022-09-09T00:21:37;99475.69;;;16.04;82.96
40730;BME280;26418;50.070;8.436;2022-09-09T00:24:52;99496.47;;;16.09;83.12
40730;BME280;26418;50.070;8.436;2022-09-09T00:27:31;99493.66;;;16.05;83.36
40730;BME280;26418;50.070;8.436;2022-09-09T00:30:25;99486.41;;;15.97;83.40
40730;BME280;26418;50.070;8.436;2022-09-09T00:32:55;99488.38;;;15.96;83.65
40730;BME280;26418;50.070;8.436;2022-09-09T00:35:45;99480.22;;;15.84;83.79
40730;BME280;26418;50.070;8.436;2022-09-09T00:38:16;99492.72;;;15.85;84.23
40730;BME280;26418;50.070;8.436;2022-09-09T00:40:56;99484.75;;;15.80;84.23
40730;BME280;26418;50.070;8.436;2022-09-09T00:43:32;99482.06;;;15.67;84.27
40730;BME280;26418;50.070;8.436;2022-09-09T00:51:47;99496.72;;;15.63;84.77
40730;BME280;26418;50.070;8.436;2022-09-09T00:59:25;99496.78;;;15.50;85.25
40730;BME280;26418;50.070;8.436;2022-09-09T01:01:53;99493.84;;;15.43;85.56
40730;BME280;26418;50.070;8.436;2022-09-09T01:04:34;99488.28;;;15.39;85.54
40730;BME280;26418;50.070;8.436;2022-09-09T01:07:16;99481.13;;;15.35;85.48
40730;BME280;26418;50.070;8.436;2022-09-09T01:09:52;99483.75;;;15.31;85.40
40730;BME280;26418;50.070;8.436;2022-09-09T01:12:26;99493.28;;;15.37;85.46
40730;BME280;26418;50.070;8.436;2022-09-09T01:15:09;99490.91;;;15.36;85.32
40730;BME280;26418;50.070;8.436;2022-09-09T01:17:48;99487.16;;;15.28;85.42
40730;BME280;26418;50.070;8.436;2022-09-09T01:20:20;99488.63;;;15.25;85.52
40730;BME280;26418;50.070;8.436;2022-09-09T01:25:56;99491.25;;;15.22;85.60
40730;BME280;26418;50.070;8.436;2022-09-09T01:28:26;99485.81;;;15.22;85.44
40730;BME280;26418;50.070;8.436;2022-09-09T01:30:54;99478.41;;;15.22;85.40
40730;BME280;26418;50.070;8.436;2022-09-09T01:33:21;99468.53;;;15.18;85.23
40730;BME280;26418;50.070;8.436;2022-09-09T01:35:52;99456.88;;;15.17;85.22
40730;BME280;26418;50.070;8.436;2022-09-09T01:38:22;99458.47;;;15.18;84.96
40730;BME280;26418;50.070;8.436;2022-09-09T01:40:49;99460.25;;;15.14;84.97
40730;BME280;26418;50.070;8.436;2022-09-09T01:43:17;99480.94;;;15.15;85.12
40730;BME280;26418;50.070;8.436;2022-09-09T01:45:44;99473.56;;;15.03;85.25
40730;BME280;26418;50.070;8.436;2022-09-09T01:48:11;99479.47;;;15.05;85.27
40730;BME280;26418;50.070;8.436;2022-09-09T01:50:37;99475.03;;;15.01;85.65
40730;BME280;26418;50.070;8.436;2022-09-09T01:53:02;99478.53;;;15.01;85.98
40730;BME280;26418;50.070;8.436;2022-09-09T01:55:31;99480.03;;;14.99;85.90
40730;BME280;26418;50.070;8.436;2022-09-09T02:00:56;99465.06;;;14.92;86.11
40730;BME280;26418;50.070;8.436;2022-09-09T02:03:27;99485.94;;;15.01;86.02
40730;BME280;26418;50.070;8.436;2022-09-09T02:06:26;99485.13;;;15.00;86.21
40730;BME280;26418;50.070;8.436;2022-09-09T02:08:57;99467.22;;;14.87;86.09
40730;BME280;26418;50.070;8.436;2022-09-09T02:11:26;99491.81;;;14.90;86.28
40730;BME280;26418;50.070;8.436;2022-09-09T02:13:56;99497.84;;;14.96;86.09
40730;BME280;26418;50.070;8.436;2022-09-09T02:16:47;99502.81;;;14.94;86.11
40730;BME280;26418;50.070;8.436;2022-09-09T02:19:25;99493.06;;;14.93;86.48
40730;BME280;26418;50.070;8.436;2022-09-09T02:21:57;99484.22;;;14.96;86.49
40730;BME280;26418;50.070;8.436;2022-09-09T02:24:26;99498.72;;;15.00;86.69
40730;BME280;26418;50.070;8.436;2022-09-09T02:26:53;99495.00;;;15.05;86.70
40730;BME280;26418;50.070;8.436;2022-09-09T02:29:40;99493.97;;;15.09;86.83
40730;BME280;26418;50.070;8.436;2022-09-09T02:32:10;99490.22;;;15.14;86.84
40730;BME280;26418;50.070;8.436;2022-09-09T02:34:44;99486.47;;;15.19;86.36
40730;BME280;26418;50.070;8.436;2022-09-09T02:37:15;99482.06;;;15.14;86.17
40730;BME280;26418;50.070;8.436;2022-09-09T02:39:42;99481.94;;;15.23;85.85
40730;BME280;26418;50.070;8.436;2022-09-09T02:42:08;99489.97;;;15.32;85.77
40730;BME280;26418;50.070;8.436;2022-09-09T02:44:33;99480.94;;;15.28;85.79
40730;BME280;26418;50.070;8.436;2022-09-09T02:52:19;99500.72;;;15.53;85.41
40730;BME280;26418;50.070;8.436;2022-09-09T02:54:47;99494.16;;;15.54;85.29
40730;BME280;26418;50.070;8.436;2022-09-09T02:57:27;99483.25;;;15.54;85.32
40730;BME280;26418;50.070;8.436;2022-09-09T02:59:53;99487.78;;;15.62;85.62
40730;BME280;26418;50.070;8.436;2022-09-09T03:02:22;99468.59;;;15.46;85.28
40730;BME280;26418;50.070;8.436;2022-09-09T03:04:47;99480.75;;;15.49;85.43
40730;BME280;26418;50.070;8.436;2022-09-09T03:07:16;99468.28;;;15.35;85.15
40730;BME280;26418;50.070;8.436;2022-09-09T03:09:42;99488.03;;;15.45;85.44
40730;BME280;26418;50.070;8.436;2022-09-09T03:12:08;99492.56;;;15.40;85.63
40730;BME280;26418;50.070;8.436;2022-09-09T03:14:33;99480.56;;;15.29;85.90
40730;BME280;26418;50.070;8.436;2022-09-09T03:16:58;99480.47;;;15.25;86.10
40730;BME280;26418;50.070;8.436;2022-09-09T03:19:26;99487.72;;;15.21;86.16
40730;BME280;26418;50.070;8.436;2022-09-09T03:21:53;99486.84;;;15.17;86.52
40730;BME280;26418;50.070;8.436;2022-09-09T03:24:18;99482.72;;;15.11;86.49
40730;BME280;26418;50.070;8.436;2022-09-09T03:26:43;99470.38;;;15.01;86.73
40730;BME280;26418;50.070;8.436;2022-09-09T03:29:12;99483.44;;;15.08;87.08
40730;BME280;26418;50.070;8.436;2022-09-09T03:31:38;99490.56;;;15.13;87.29
40730;BME280;26418;50.070;8.436;2022-09-09T03:34:04;99491.56;;;15.20;87.35
40730;BME280;26418;50.070;8.436;2022-09-09T03:36:31;99493.31;;;15.13;87.18
40730;BME280;26418;50.070;8.436;2022-09-09T03:38:56;99486.25;;;15.12;87.23
40730;BME280;26418;50.070;8.436;2022-09-09T03:41:22;99481.81;;;15.19;87.16
40730;BME280;26418;50.070;8.436;2022-09-09T03:43:52;99498.06;;;15.28;86.99
40730;BME280;26418;50.070;8.436;2022-09-09T03:46:22;99493.38;;;15.29;86.97
40730;BME280;26418;50.070;8.436;2022-09-09T03:48:48;99497.38;;;15.31;86.80
40730;BME280;26418;50.070;8.436;2022-09-09T03:51:14;99481.94;;;15.23;86.55
40730;BME280;26418;50.070;8.436;2022-09-09T03:53:40;99492.34;;;15.33;86.27
40730;BME280;26418;50.070;8.436;2022-09-09T03:56:06;99490.75;;;15.32;86.16
40730;BME280;26418;50.070;8.436;2022-09-09T03:58:34;99473.88;;;15.27;85.68
40730;BME280;26418;50.070;8.436;2022-09-09T04:01:02;99490.31;;;15.43;85.30
40730;BME280;26418;50.070;8.436;2022-09-09T04:03:28;99472.25;;;15.38;85.10
40730;BME280;26418;50.070;8.436;2022-09-09T04:05:54;99492.69;;;15.44;85.03
40730;BME280;26418;50.070;8.436;2022-09-09T04:08:20;99475.34;;;15.36;85.08
40730;BME280;26418;50.070;8.436;2022-09-09T04:10:47;99461.03;;;15.27;85.44
40730;BME280;26418;50.070;8.436;2022-09-09T04:13:13;99472.03;;;15.31;85.67
40730;BME280;26418;50.070;8.436;2022-09-09T04:15:40;99456.50;;;15.19;85.95
40730;BME280;26418;50.070;8.436;2022-09-09T04:18:06;99454.56;;;15.19;86.11
40730;BME280;26418;50.070;8.436;2022-09-09T04:20:31;99461.72;;;15.24;86.36
40730;BME280;26418;50.070;8.436;2022-09-09T04:22:56;99453.69;;;15.15;86.68
40730;BME280;26418;50.070;8.436;2022-09-09T04:25:22;99440.41;;;15.01;86.56
40730;BME280;26418;50.070;8.436;2022-09-09T04:27:47;99455.16;;;15.13;86.86
40730;BME280;26418;50.070;8.436;2022-09-09T04:30:12;99462.31;;;15.17;86.89
40730;BME280;26418;50.070;8.436;2022-09-09T04:32:38;99463.00;;;15.14;87.05
40730;BME280;26418;50.070;8.436;2022-09-09T04:35:03;99446.44;;;15.07;87.04
40730;BME280;26418;50.070;8.436;2022-09-09T04:37:28;99438.81;;;15.00;87.23
40730;BME280;26418;50.070;8.436;2022-09-09T04:39:54;99461.41;;;15.13;87.09
40730;BME280;26418;50.070;8.436;2022-09-09T04:42:19;99470.69;;;15.12;87.10
40730;BME280;26418;50.070;8.436;2022-09-09T04:44:45;99465.72;;;15.14;86.81
40730;BME280;26418;50.070;8.436;2022-09-09T04:47:10;99465.47;;;15.19;86.48
40730;BME280;26418;50.070;8.436;2022-09-09T04:49:35;99459.81;;;15.12;86.27
40730;BME280;26418;50.070;8.436;2022-09-09T04:52:02;99464.13;;;15.13;86.28
40730;BME280;26418;50.070;8.436;2022-09-09T04:54:28;99464.38;;;15.08;86.33
40730;BME280;26418;50.070;8.436;2022-09-09T04:56:54;99481.38;;;15.17;86.47
40730;BME280;26418;50.070;8.436;2022-09-09T04:59:20;99483.28;;;15.17;86.28
40730;BME280;26418;50.070;8.436;2022-09-09T05:01:45;99483.75;;;15.19;86.26
40730;BME280;26418;50.070;8.436;2022-09-09T05:04:11;99485.34;;;15.20;86.16
40730;BME280;26418;50.070;8.436;2022-09-09T05:06:36;99481.28;;;15.14;86.19
40730;BME280;26418;50.070;8.436;2022-09-09T05:09:05;99483.66;;;15.15;86.20
40730;BME280;26418;50.070;8.436;2022-09-09T05:11:32;99467.75;;;15.05;86.38
40730;BME280;26418;50.070;8.436;2022-09-09T05:13:57;99493.06;;;15.18;86.12
40730;BME280;26418;50.070;8.436;2022-09-09T05:16:23;99501.94;;;15.15;86.07
40730;BME280;26418;50.070;8.436;2022-09-09T05:18:49;99493.31;;;15.13;86.14
40730;BME280;26418;50.070;8.436;2022-09-09T05:21:17;99497.81;;;15.08;86.27
40730;BME280;26418;50.070;8.436;2022-09-09T05:23:44;99488.75;;;15.04;86.17
40730;BME280;26418;50.070;8.436;2022-09-09T05:26:13;99479.34;;;15.02;86.35
40730;BME280;26418;50.070;8.436;2022-09-09T05:28:39;99506.47;;;15.23;86.10
40730;BME280;26418;50.070;8.436;2022-09-09T05:31:07;99507.81;;;15.29;86.14
40730;BME280;26418;50.070;8.436;2022-09-09T05:33:34;99515.41;;;15.36;86.06
40730;BME280;26418;50.070;8.436;2022-09-09T05:38:27;99521.19;;;15.47;85.65
40730;BME280;26418;50.070;8.436;2022-09-09T05:40:53;99529.69;;;15.57;85.58
40730;BME280;26418;50.070;8.436;2022-09-09T05:43:19;99520.72;;;15.57;85.37
40730;BME280;26418;50.070;8.436;2022-09-09T05:45:46;99508.22;;;15.56;85.32
40730;BME280;26418;50.070;8.436;2022-09-09T05:48:13;99528.63;;;15.75;85.09
40730;BME280;26418;50.070;8.436;2022-09-09T05:50:40;99522.47;;;15.78;85.15
40730;BME280;26418;50.070;8.436;2022-09-09T05:53:06;99527.13;;;15.90;84.71
40730;BME280;26418;50.070;8.436;2022-09-09T05:55:31;99534.47;;;16.01;84.64
40730;BME280;26418;50.070;8.436;2022-09-09T05:57:56;99526.84;;;16.07;84.39
40730;BME280;26418;50.070;8.436;2022-09-09T06:00:22;99537.00;;;16.23;84.23
40730;BME280;26418;50.070;8.436;2022-09-09T06:02:51;99540.66;;;16.27;84.09
40730;BME280;26418;50.070;8.436;2022-09-09T06:05:17;99538.78;;;16.31;83.40
40730;BME280;26418;50.070;8.436;2022-09-09T06:07:42;99530.69;;;16.34;82.76
40730;BME280;26418;50.070;8.436;2022-09-09T06:10:10;99547.72;;;16.44;81.20
40730;BME280;26418;50.070;8.436;2022-09-09T06:12:35;99539.81;;;16.55;81.44
40730;BME280;26418;50.070;8.436;2022-09-09T06:15:01;99531.00;;;16.61;81.04
40730;BME280;26418;50.070;8.436;2022-09-09T06:17:27;99541.50;;;16.75;80.24
40730;BME280;26418;50.070;8.436;2022-09-09T06:19:52;99545.66;;;16.85;80.11
40730;BME280;26418;50.070;8.436;2022-09-09T06:22:18;99547.19;;;16.99;79.63
40730;BME280;26418;50.070;8.436;2022-09-09T06:24:43;99537.22;;;17.06;79.14
40730;BME280;26418;50.070;8.436;2022-09-09T06:27:09;99533.69;;;17.06;78.45
40730;BME280;26418;50.070;8.436;2022-09-09T06:29:35;99534.41;;;17.03;77.59
40730;BME280;26418;50.070;8.436;2022-09-09T06:32:02;99546.91;;;17.04;77.97
40730;BME280;26418;50.070;8.436;2022-09-09T06:34:28;99539.09;;;17.02;78.59
40730;BME280;26418;50.070;8.436;2022-09-09T06:36:53;99541.97;;;17.09;78.78
40730;BME280;26418;50.070;8.436;2022-09-09T06:39:18;99537.66;;;17.08;77.91
40730;BME280;26418;50.070;8.436;2022-09-09T06:41:44;99544.00;;;17.12;77.77
40730;BME280;26418;50.070;8.436;2022-09-09T06:44:09;99545.84;;;17.08;77.50
40730;BME280;26418;50.070;8.436;2022-09-09T06:46:37;99538.03;;;17.07;77.36
40730;BME280;26418;50.070;8.436;2022-09-09T06:49:03;99550.72;;;17.15;77.06
40730;BME280;26418;50.070;8.436;2022-09-09T06:51:30;99541.81;;;17.02;76.94
40730;BME280;26418;50.070;8.436;2022-09-09T06:53:58;99534.84;;;17.05;77.80
40730;BME280;26418;50.070;8.436;2022-09-09T06:56:35;99538.88;;;17.11;78.09
40730;BME280;26418;50.070;8.436;2022-09-09T06:59:03;99532.19;;;17.24;77.08
40730;BME280;26418;50.070;8.436;2022-09-09T07:01:34;99545.81;;;17.40;76.21
40730;BME280;26418;50.070;8.436;2022-09-09T07:04:00;99541.94;;;17.41;76.22
40730;BME280;26418;50.070;8.436;2022-09-09T07:06:29;99536.19;;;17.47;76.50
40730;BME280;26418;50.070;8.436;2022-09-09T07:09:00;99542.63;;;17.54;76.08
40730;BME280;26418;50.070;8.436;2022-09-09T07:11:28;99533.53;;;17.50;75.37
40730;BME280;26418;50.070;8.436;2022-09-09T07:13:54;99549.66;;;17.55;75.42
40730;BME280;26418;50.070;8.436;2022-09-09T07:16:22;99552.41;;;17.55;74.90
40730;BME280;26418;50.070;8.436;2022-09-09T07:18:51;99543.50;;;17.58;75.09
40730;BME280;26418;50.070;8.436;2022-09-09T07:21:18;99548.16;;;17.58;75.63
40730;BME280;26418;50.070;8.436;2022-09-09T07:23:44;99551.13;;;17.69;75.37
40730;BME280;26418;50.070;8.436;2022-09-09T07:26:12;99550.13;;;17.77;75.31
40730;BME280;26418;50.070;8.436;2022-09-09T07:28:38;99551.53;;;17.87;74.36
40730;BME280;26418;50.070;8.436;2022-09-09T07:31:05;99547.72;;;17.91;74.64
40730;BME280;26418;50.070;8.436;2022-09-09T07:33:32;99540.53;;;18.03;73.41
40730;BME280;26418;50.070;8.436;2022-09-09T07:36:09;99559.81;;;18.10;72.88
40730;BME280;26418;50.070;8.436;2022-09-09T07:38:46;99556.44;;;18.17;72.59
40730;BME280;26418;50.070;8.436;2022-09-09T07:41:15;99552.13;;;18.16;72.50
40730;BME280;26418;50.070;8.436;2022-09-09T07:43:42;99558.41;;;18.16;72.46
40730;BME280;26418;50.070;8.436;2022-09-09T07:46:10;99561.34;;;18.07;72.39
40730;BME280;26418;50.070;8.436;2022-09-09T07:48:37;99562.16;;;18.08;72.75
40730;BME280;26418;50.070;8.436;2022-09-09T07:51:15;99567.44;;;18.01;73.03
40730;BME280;26418;50.070;8.436;2022-09-09T07:53:45;99563.50;;;17.98;73.09
40730;BME280;26418;50.070;8.436;2022-09-09T07:56:14;99557.91;;;17.95;72.93
40730;BME280;26418;50.070;8.436;2022-09-09T07:58:42;99572.66;;;17.90;73.27
40730;BME280;26418;50.070;8.436;2022-09-09T08:01:14;99556.91;;;17.83;73.57
40730;BME280;26418;50.070;8.436;2022-09-09T08:03:41;99571.88;;;17.89;72.70
40730;BME280;26418;50.070;8.436;2022-09-09T08:06:07;99574.88;;;18.00;73.00
40730;BME280;26418;50.070;8.436;2022-09-09T08:08:37;99573.09;;;18.08;72.55
40730;BME280;26418;50.070;8.436;2022-09-09T08:11:13;99575.41;;;18.26;72.64
40730;BME280;26418;50.070;8.436;2022-09-09T08:13:40;99580.41;;;18.43;72.38
40730;BME280;26418;50.070;8.436;2022-09-09T08:16:08;99555.13;;;18.50;71.74
40730;BME280;26418;50.070;8.436;2022-09-09T08:18:34;99575.47;;;18.72;70.37
40730;BME280;26418;50.070;8.436;2022-09-09T08:21:13;99562.38;;;18.85;70.35
40730;BME280;26418;50.070;8.436;2022-09-09T08:23:43;99568.50;;;18.98;68.67
40730;BME280;26418;50.070;8.436;2022-09-09T08:26:14;99570.16;;;19.03;68.02
40730;BME280;26418;50.070;8.436;2022-09-09T08:28:40;99567.47;;;19.06;67.86
40730;BME280;26418;50.070;8.436;2022-09-09T08:31:17;99580.00;;;19.07;68.00
40730;BME280;26418;50.070;8.436;2022-09-09T08:33:43;99577.94;;;19.00;67.45
40730;BME280;26418;50.070;8.436;2022-09-09T08:36:16;99585.16;;;18.89;67.72
40730;BME280;26418;50.070;8.436;2022-09-09T08:38:42;99573.78;;;18.87;67.95
40730;BME280;26418;50.070;8.436;2022-09-09T08:43:46;99575.72;;;18.86;67.44
40730;BME280;26418;50.070;8.436;2022-09-09T08:52:17;99568.00;;;19.15;65.95
40730;BME280;26418;50.070;8.436;2022-09-09T08:54:44;99572.81;;;19.22;65.79
40730;BME280;26418;50.070;8.436;2022-09-09T08:57:15;99565.16;;;19.35;65.40
40730;BME280;26418;50.070;8.436;2022-09-09T08:59:43;99564.84;;;19.40;65.64
40730;BME280;26418;50.070;8.436;2022-09-09T09:02:17;99567.28;;;19.45;65.52
40730;BME280;26418;50.070;8.436;2022-09-09T09:05:11;99570.44;;;19.47;66.17
40730;BME280;26418;50.070;8.436;2022-09-09T09:07:52;99567.50;;;19.33;66.83
40730;BME280;26418;50.070;8.436;2022-09-09T09:10:46;99569.66;;;19.20;66.89
40730;BME280;26418;50.070;8.436;2022-09-09T09:13:43;99569.22;;;19.18;67.28
40730;BME280;26418;50.070;8.436;2022-09-09T09:19:08;99558.94;;;19.38;66.19
40730;BME280;26418;50.070;8.436;2022-09-09T09:22:06;99563.28;;;19.66;66.29
40730;BME280;26418;50.070;8.436;2022-09-09T09:24:53;99549.91;;;19.91;65.02
40730;BME280;26418;50.070;8.436;2022-09-09T09:27:42;99543.25;;;20.26;62.05
40730;BME280;26418;50.070;8.436;2022-09-09T09:32:39;99555.19;;;20.41;62.64
40730;BME280;26418;50.070;8.436;2022-09-09T09:35:13;99562.44;;;20.23;62.54
40730;BME280;26418;50.070;8.436;2022-09-09T09:37:40;99553.13;;;20.31;63.07
40730;BME280;26418;50.070;8.436;2022-09-09T09:40:20;99549.69;;;20.79;62.09
40730;BME280;26418;50.070;8.436;2022-09-09T09:46:01;99533.63;;;22.14;57.85
40730;BME280;26418;50.070;8.436;2022-09-09T09:48:06;99532.19;;;22.75;54.84
40730;BME280;26418;50.070;8.436;2022-09-09T09:50:33;99540.50;;;23.18;54.35
40730;BME280;26418;50.070;8.436;2022-09-09T09:53:03;99534.91;;;23.44;52.53
40730;BME280;26418;50.070;8.436;2022-09-09T09:55:31;99539.28;;;23.37;51.04
40730;BME280;26418;50.070;8.436;2022-09-09T09:58:06;99542.06;;;23.16;48.10
40730;BME280;26418;50.070;8.436;2022-09-09T10:00:33;99527.84;;;22.67;49.13
40730;BME280;26418;50.070;8.436;2022-09-09T10:03:00;99547.50;;;22.47;50.79
40730;BME280;26418;50.070;8.436;2022-09-09T10:05:28;99556.91;;;22.35;51.50
40730;BME280;26418;50.070;8.436;2022-09-09T10:08:13;99547.69;;;21.88;51.83
40730;BME280;26418;50.070;8.436;2022-09-09T10:15:52;99548.19;;;20.89;55.79
40730;BME280;26418;50.070;8.436;2022-09-09T10:23:51;99537.16;;;20.06;58.79
40730;BME280;26418;50.070;8.436;2022-09-09T10:29:23;99542.56;;;19.72;60.69
40730;BME280;26418;50.070;8.436;2022-09-09T10:37:42;99530.66;;;19.88;58.48
40730;BME280;26418;50.070;8.436;2022-09-09T10:40:28;99540.63;;;20.03;56.29
40730;BME280;26418;50.070;8.436;2022-09-09T10:43:18;99532.59;;;20.18;56.06
40730;BME280;26418;50.070;8.436;2022-09-09T10:56:44;99520.75;;;23.45;44.91
40730;BME280;26418;50.070;8.436;2022-09-09T10:59:18;99519.91;;;23.55;44.77
40730;BME280;26418;50.070;8.436;2022-09-09T11:01:57;99521.44;;;23.67;44.24
40730;BME280;26418;50.070;8.436;2022-09-09T11:07:08;99519.91;;;23.52;44.30
40730;BME280;26418;50.070;8.436;2022-09-09T11:09:38;99521.81;;;23.73;44.03
40730;BME280;26418;50.070;8.436;2022-09-09T11:12:13;99509.34;;;24.28;43.33
40730;BME280;26418;50.070;8.436;2022-09-09T11:14:55;99508.63;;;24.80;41.60
40730;BME280;26418;50.070;8.436;2022-09-09T11:17:26;99512.41;;;25.01;40.20
40730;BME280;26418;50.070;8.436;2022-09-09T11:19:55;99509.13;;;25.10;38.96
40730;BME280;26418;50.070;8.436;2022-09-09T11:22:29;99509.44;;;25.19;39.50
40730;BME280;26418;50.070;8.436;2022-09-09T11:25:10;99502.56;;;25.38;39.15
40730;BME280;26418;50.070;8.436;2022-09-09T11:30:17;99496.44;;;25.89;38.91
40730;BME280;26418;50.070;8.436;2022-09-09T11:40:25;99518.16;;;26.80;37.37
40730;BME280;26418;50.070;8.436;2022-09-09T11:43:09;99509.22;;;26.14;36.79
40730;BME280;26418;50.070;8.436;2022-09-09T11:45:36;99502.38;;;25.15;38.31
40730;BME280;26418;50.070;8.436;2022-09-09T11:48:03;99510.66;;;24.73;39.33
40730;BME280;26418;50.070;8.436;2022-09-09T11:50:34;99514.69;;;24.61;40.59
40730;BME280;26418;50.070;8.436;2022-09-09T11:55:42;99519.72;;;24.13;41.83
40730;BME280;26418;50.070;8.436;2022-09-09T12:00:41;99512.84;;;23.44;44.10
40730;BME280;26418;50.070;8.436;2022-09-09T12:03:45;99528.66;;;23.21;44.72
40730;BME280;26418;50.070;8.436;2022-09-09T12:06:25;99521.56;;;23.17;45.53
40730;BME280;26418;50.070;8.436;2022-09-09T12:09:05;99525.09;;;23.24;45.88
40730;BME280;26418;50.070;8.436;2022-09-09T12:11:31;99517.22;;;23.27;44.50
40730;BME280;26418;50.070;8.436;2022-09-09T12:13:58;99524.31;;;23.28;43.63
40730;BME280;26418;50.070;8.436;2022-09-09T12:16:44;99522.34;;;23.17;43.87
40730;BME280;26418;50.070;8.436;2022-09-09T12:21:48;99531.41;;;23.07;45.15
40730;BME280;26418;50.070;8.436;2022-09-09T12:24:31;99531.41;;;22.96;46.56
40730;BME280;26418;50.070;8.436;2022-09-09T12:29:59;99569.47;;;22.18;51.32
40730;BME280;26418;50.070;8.436;2022-09-09T12:32:27;99558.69;;;21.25;58.80
40730;BME280;26418;50.070;8.436;2022-09-09T12:35:03;99539.91;;;20.44;61.27
40730;BME280;26418;50.070;8.436;2022-09-09T12:38:00;99536.59;;;19.93;63.48
40730;BME280;26418;50.070;8.436;2022-09-09T12:40:31;99534.78;;;19.74;65.35
40730;BME280;26418;50.070;8.436;2022-09-09T12:43:00;99521.56;;;19.53;65.91
40730;BME280;26418;50.070;8.436;2022-09-09T12:45:28;99520.34;;;19.51;66.50
40730;BME280;26418;50.070;8.436;2022-09-09T12:48:01;99523.50;;;19.53;67.54
40730;BME280;26418;50.070;8.436;2022-09-09T12:50:34;99526.28;;;19.56;67.61
40730;BME280;26418;50.070;8.436;2022-09-09T12:53:21;99529.03;;;19.56;67.56
40730;BME280;26418;50.070;8.436;2022-09-09T12:58:20;99521.69;;;19.64;67.27
40730;BME280;26418;50.070;8.436;2022-09-09T13:00:50;99522.78;;;19.86;67.10
40730;BME280;26418;50.070;8.436;2022-09-09T13:03:19;99535.38;;;20.21;67.32
40730;BME280;26418;50.070;8.436;2022-09-09T13:05:46;99530.94;;;20.47;65.90
40730;BME280;26418;50.070;8.436;2022-09-09T13:08:14;99530.03;;;20.77;65.08
40730;BME280;26418;50.070;8.436;2022-09-09T13:20:53;99519.84;;;21.33;59.45
40730;BME280;26418;50.070;8.436;2022-09-09T13:23:20;99520.75;;;21.48;59.74
40730;BME280;26418;50.070;8.436;2022-09-09T13:26:04;99520.06;;;21.66;58.69
40730;BME280;26418;50.070;8.436;2022-09-09T13:28:31;99505.19;;;21.81;58.66
40730;BME280;26418;50.070;8.436;2022-09-09T13:31:01;99499.72;;;21.92;57.86
40730;BME280;26418;50.070;8.436;2022-09-09T13:33:35;99499.75;;;22.07;58.83
40730;BME280;26418;50.070;8.436;2022-09-09T13:36:10;99495.41;;;21.95;57.18
40730;BME280;26418;50.070;8.436;2022-09-09T13:38:40;99495.00;;;21.89;56.73
40730;BME280;26418;50.070;8.436;2022-09-09T13:41:08;99487.88;;;21.85;57.57
40730;BME280;26418;50.070;8.436;2022-09-09T13:43:43;99497.69;;;21.75;57.32
40730;BME280;26418;50.070;8.436;2022-09-09T13:51:32;99507.00;;;21.52;57.91
40730;BME280;26418;50.070;8.436;2022-09-09T13:53:59;99497.06;;;21.33;58.11
40730;BME280;26418;50.070;8.436;2022-09-09T13:56:25;99511.94;;;21.25;57.15
40730;BME280;26418;50.070;8.436;2022-09-09T13:58:51;99517.72;;;21.09;56.54
40730;BME280;26418;50.070;8.436;2022-09-09T14:01:16;99525.06;;;20.94;56.11
40730;BME280;26418;50.070;8.436;2022-09-09T14:03:42;99518.31;;;20.84;56.59
40730;BME280;26418;50.070;8.436;2022-09-09T14:06:09;99528.47;;;20.76;55.29
40730;BME280;26418;50.070;8.436;2022-09-09T14:08:35;99529.25;;;20.77;56.55
40730;BME280;26418;50.070;8.436;2022-09-09T14:11:05;99530.81;;;20.78;56.02
40730;BME280;26418;50.070;8.436;2022-09-09T14:13:32;99540.69;;;20.82;56.64
40730;BME280;26418;50.070;8.436;2022-09-09T14:15:57;99538.69;;;20.76;55.82
40730;BME280;26418;50.070;8.436;2022-09-09T14:18:22;99541.69;;;20.67;55.82
40730;BME280;26418;50.070;8.436;2022-09-09T14:20:50;99544.75;;;20.58;56.01
40730;BME280;26418;50.070;8.436;2022-09-09T14:23:16;99544.72;;;20.54;57.53
40730;BME280;26418;50.070;8.436;2022-09-09T14:25:45;99549.72;;;20.45;57.61
40730;BME280;26418;50.070;8.436;2022-09-09T14:28:12;99547.22;;;20.33;58.40
40730;BME280;26418;50.070;8.436;2022-09-09T14:30:40;99547.50;;;20.20;59.43
40730;BME280;26418;50.070;8.436;2022-09-09T14:33:06;99544.66;;;20.09;60.69
40730;BME280;26418;50.070;8.436;2022-09-09T14:35:31;99545.75;;;20.05;61.18
40730;BME280;26418;50.070;8.436;2022-09-09T14:37:58;99544.19;;;20.04;61.52
40730;BME280;26418;50.070;8.436;2022-09-09T14:40:24;99534.47;;;20.14;61.96
40730;BME280;26418;50.070;8.436;2022-09-09T14:42:49;99534.25;;;20.26;60.84
40730;BME280;26418;50.070;8.436;2022-09-09T14:45:14;99526.53;;;20.39;60.72
40730;BME280;26418;50.070;8.436;2022-09-09T14:47:40;99521.94;;;20.54;60.73
40730;BME280;26418;50.070;8.436;2022-09-09T14:50:05;99514.50;;;20.54;59.93
40730;BME280;26418;50.070;8.436;2022-09-09T14:52:33;99520.88;;;20.66;59.56
40730;BME280;26418;50.070;8.436;2022-09-09T14:54:59;99517.38;;;20.69;59.71
40730;BME280;26418;50.070;8.436;2022-09-09T14:57:24;99507.97;;;20.70;59.88
40730;BME280;26418;50.070;8.436;2022-09-09T14:59:49;99508.75;;;20.70;59.68
40730;BME280;26418;50.070;8.436;2022-09-09T15:02:15;99499.78;;;20.73;59.92
40730;BME280;26418;50.070;8.436;2022-09-09T15:04:41;99511.97;;;20.76;59.76
40730;BME280;26418;50.070;8.436;2022-09-09T15:07:07;99507.28;;;20.77;59.49
40730;BME280;26418;50.070;8.436;2022-09-09T15:09:32;99498.22;;;20.76;59.77